sensor_id;sensor_type;location;lat;lon;timestamp;pressure;altitude;pressure_sealevel;temperature;humidity
60852;BME280;48553;50.766;2.900;2024-02-16T00:01:19;100076.25;;;11.34;100.00
60852;BME280;48553;50.766;2.900;2024-02-16T00:04:20;100073.16;;;11.36;100.00
60852;BME280;48553;50.766;2.900;2024-02-16T00:07:21;100074.66;;;11.33;100.00
60852;BME280;48553;50.766;2.900;2024-02-16T00:10:21;100079.78;;;11.35;100.00
60852;BME280;48553;50.766;2.900;2024-02-16T00:13:22;100082.88;;;11.33;100.00
60852;BME280;48553;50.766;2.900;2024-02-16T00:16:22;100080.53;;;11.32;100.00
60852;BME280;48553;50.766;2.900;2024-02-16T00:19:23;100072.28;;;11.32;100.00
60852;BME280;48553;50.766;2.900;2024-02-16T00:22:23;100082.47;;;11.31;100.00
60852;BME280;48553;50.766;2.900;2024-02-16T00:25:24;100072.28;;;11.32;100.00
60852;BME280;48553;50.766;2.900;2024-02-16T00:28:24;100074.16;;;11.27;100.00
60852;BME280;48553;50.766;2.900;2024-02-16T00:31:25;100073.72;;;11.25;100.00
60852;BME280;48553;50.766;2.900;2024-02-16T00:34:25;100077.25;;;11.26;100.00
60852;BME280;48553;50.766;2.900;2024-02-16T00:37:26;100080.81;;;11.26;100.00
60852;BME280;48553;50.766;2.900;2024-02-16T00:40:26;100079.91;;;11.22;100.00
60852;BME280;48553;50.766;2.900;2024-02-16T00:43:27;100077.97;;;11.23;100.00
60852;BME280;48553;50.766;2.900;2024-02-16T00:46:27;100082.66;;;11.22;100.00
60852;BME280;48553;50.766;2.900;2024-02-16T00:49:28;100084.63;;;11.22;100.00
60852;BME280;48553;50.766;2.900;2024-02-16T00:52:28;100075.50;;;11.18;100.00
60852;BME280;48553;50.766;2.900;2024-02-16T00:55:28;100081.06;;;11.21;100.00
60852;BME280;48553;50.766;2.900;2024-02-16T00:58:29;100072.38;;;11.19;100.00
60852;BME280;48553;50.766;2.900;2024-02-16T01:01:30;100067.63;;;11.16;100.00
60852;BME280;48553;50.766;2.900;2024-02-16T01:04:31;100074.28;;;11.15;100.00
60852;BME280;48553;50.766;2.900;2024-02-16T01:07:31;100081.34;;;11.16;100.00
60852;BME280;48553;50.766;2.900;2024-02-16T01:10:32;100077.00;;;11.15;100.00
60852;BME280;48553;50.766;2.900;2024-02-16T01:13:33;100074.63;;;11.14;100.00
60852;BME280;48553;50.766;2.900;2024-02-16T01:16:34;100075.69;;;11.09;100.00
60852;BME280;48553;50.766;2.900;2024-02-16T01:19:35;100074.63;;;11.14;100.00
60852;BME280;48553;50.766;2.900;2024-02-16T01:22:36;100072.22;;;11.12;100.00
60852;BME280;48553;50.766;2.900;2024-02-16T01:25:36;100063.13;;;11.08;100.00
60852;BME280;48553;50.766;2.900;2024-02-16T01:28:37;100064.28;;;11.07;100.00
60852;BME280;48553;50.766;2.900;2024-02-16T01:31:37;100066.22;;;11.06;100.00
60852;BME280;48553;50.766;2.900;2024-02-16T01:34:38;100054.81;;;11.04;100.00
60852;BME280;48553;50.766;2.900;2024-02-16T01:37:39;100063.84;;;11.05;100.00
60852;BME280;48553;50.766;2.900;2024-02-16T01:40:40;100062.25;;;11.04;100.00
60852;BME280;48553;50.766;2.900;2024-02-16T01:43:41;100072.00;;;11.01;100.00
60852;BME280;48553;50.766;2.900;2024-02-16T01:46:41;100058.28;;;11.01;100.00
60852;BME280;48553;50.766;2.900;2024-02-16T01:49:42;100057.03;;;10.99;100.00
60852;BME280;48553;50.766;2.900;2024-02-16T01:52:43;100058.19;;;10.98;100.00
60852;BME280;48553;50.766;2.900;2024-02-16T01:55:47;100068.00;;;10.99;100.00
60852;BME280;48553;50.766;2.900;2024-02-16T01:58:48;100059.69;;;10.95;100.00
60852;BME280;48553;50.766;2.900;2024-02-16T02:01:48;100070.66;;;10.95;100.00
60852;BME280;48553;50.766;2.900;2024-02-16T02:04:49;100069.06;;;10.94;100.00
60852;BME280;48553;50.766;2.900;2024-02-16T02:07:49;100065.53;;;10.94;100.00
60852;BME280;48553;50.766;2.900;2024-02-16T02:10:50;100067.91;;;10.95;100.00
60852;BME280;48553;50.766;2.900;2024-02-16T02:13:50;100066.31;;;10.94;100.00
60852;BME280;48553;50.766;2.900;2024-02-16T02:16:51;100060.03;;;10.94;100.00
60852;BME280;48553;50.766;2.900;2024-02-16T02:19:51;100053.31;;;10.91;100.00
60852;BME280;48553;50.766;2.900;2024-02-16T02:22:51;100057.22;;;10.90;100.00
60852;BME280;48553;50.766;2.900;2024-02-16T02:25:53;100053.66;;;10.90;100.00
60852;BME280;48553;50.766;2.900;2024-02-16T02:28:53;100049.34;;;10.89;100.00
60852;BME280;48553;50.766;2.900;2024-02-16T02:31:54;100066.59;;;10.89;100.00
60852;BME280;48553;50.766;2.900;2024-02-16T02:34:54;100069.69;;;10.87;100.00
60852;BME280;48553;50.766;2.900;2024-02-16T02:37:55;100063.41;;;10.87;100.00
60852;BME280;48553;50.766;2.900;2024-02-16T02:40:56;100071.19;;;10.85;100.00
60852;BME280;48553;50.766;2.900;2024-02-16T02:43:56;100077.03;;;10.83;100.00
60852;BME280;48553;50.766;2.900;2024-02-16T02:46:57;100082.53;;;10.83;100.00
60852;BME280;48553;50.766;2.900;2024-02-16T02:49:57;100070.75;;;10.83;100.00
60852;BME280;48553;50.766;2.900;2024-02-16T02:52:58;100071.56;;;10.83;100.00
60852;BME280;48553;50.766;2.900;2024-02-16T02:55:58;100081.25;;;10.81;100.00
60852;BME280;48553;50.766;2.900;2024-02-16T02:58:59;100071.13;;;10.81;100.00
60852;BME280;48553;50.766;2.900;2024-02-16T03:01:59;100070.66;;;10.79;100.00
60852;BME280;48553;50.766;2.900;2024-02-16T03:04:59;100055.44;;;10.82;100.00
60852;BME280;48553;50.766;2.900;2024-02-16T03:08:00;100047.22;;;10.82;100.00
60852;BME280;48553;50.766;2.900;2024-02-16T03:11:02;100042.88;;;10.81;100.00
60852;BME280;48553;50.766;2.900;2024-02-16T03:14:04;100052.72;;;10.82;100.00
60852;BME280;48553;50.766;2.900;2024-02-16T03:17:05;100060.16;;;10.81;100.00
60852;BME280;48553;50.766;2.900;2024-02-16T03:20:06;100069.16;;;10.82;100.00
60852;BME280;48553;50.766;2.900;2024-02-16T03:23:08;100074.66;;;10.82;100.00
60852;BME280;48553;50.766;2.900;2024-02-16T03:26:18;100073.84;;;10.81;100.00
60852;BME280;48553;50.766;2.900;2024-02-16T03:29:19;100065.19;;;10.79;100.00
60852;BME280;48553;50.766;2.900;2024-02-16T03:32:19;100071.13;;;10.81;100.00
60852;BME280;48553;50.766;2.900;2024-02-16T03:35:19;100076.59;;;10.81;100.00
60852;BME280;48553;50.766;2.900;2024-02-16T03:38:20;100077.38;;;10.82;100.00
60852;BME280;48553;50.766;2.900;2024-02-16T03:41:22;100073.03;;;10.81;100.00
60852;BME280;48553;50.766;2.900;2024-02-16T03:44:23;100085.16;;;10.80;100.00
60852;BME280;48553;50.766;2.900;2024-02-16T03:47:23;100085.16;;;10.80;100.00
60852;BME280;48553;50.766;2.900;2024-02-16T03:50:24;100078.91;;;10.79;100.00
60852;BME280;48553;50.766;2.900;2024-02-16T03:53:24;100080.03;;;10.78;100.00
60852;BME280;48553;50.766;2.900;2024-02-16T03:56:25;100085.16;;;10.80;100.00
60852;BME280;48553;50.766;2.900;2024-02-16T03:59:25;100091.44;;;10.80;100.00
60852;BME280;48553;50.766;2.900;2024-02-16T04:02:25;100082.75;;;10.78;100.00
60852;BME280;48553;50.766;2.900;2024-02-16T04:05:26;100085.16;;;10.80;100.00
60852;BME280;48553;50.766;2.900;2024-02-16T04:08:31;100100.44;;;10.81;100.00
60852;BME280;48553;50.766;2.900;2024-02-16T04:11:32;100100.44;;;10.81;100.00
60852;BME280;48553;50.766;2.900;2024-02-16T04:14:32;100105.59;;;10.82;100.00
60852;BME280;48553;50.766;2.900;2024-02-16T04:17:33;100101.72;;;10.83;100.00
60852;BME280;48553;50.766;2.900;2024-02-16T04:20:34;100109.03;;;10.79;100.00
60852;BME280;48553;50.766;2.900;2024-02-16T04:23:34;100109.03;;;10.79;100.00
60852;BME280;48553;50.766;2.900;2024-02-16T04:26:35;100113.72;;;10.79;100.00
60852;BME280;48553;50.766;2.900;2024-02-16T04:29:35;100108.94;;;10.76;100.00
60852;BME280;48553;50.766;2.900;2024-02-16T04:32:36;100117.16;;;10.76;100.00
60852;BME280;48553;50.766;2.900;2024-02-16T04:35:36;100111.34;;;10.77;100.00
60852;BME280;48553;50.766;2.900;2024-02-16T04:38:37;100114.06;;;10.77;100.00
60852;BME280;48553;50.766;2.900;2024-02-16T04:41:37;100123.81;;;10.75;100.00
60852;BME280;48553;50.766;2.900;2024-02-16T04:44:38;100143.44;;;10.77;100.00
60852;BME280;48553;50.766;2.900;2024-02-16T04:47:39;100138.28;;;10.75;100.00
60852;BME280;48553;50.766;2.900;2024-02-16T04:50:40;100149.59;;;10.74;100.00
60852;BME280;48553;50.766;2.900;2024-02-16T04:53:40;100161.81;;;10.76;100.00
60852;BME280;48553;50.766;2.900;2024-02-16T04:56:40;100154.03;;;10.78;100.00
60852;BME280;48553;50.766;2.900;2024-02-16T04:59:41;100155.19;;;10.77;100.00
60852;BME280;48553;50.766;2.900;2024-02-16T05:02:41;100163.06;;;10.79;100.00
60852;BME280;48553;50.766;2.900;2024-02-16T05:05:42;100157.94;;;10.77;100.00
60852;BME280;48553;50.766;2.900;2024-02-16T05:08:42;100159.63;;;10.82;100.00
60852;BME280;48553;50.766;2.900;2024-02-16T05:11:43;100155.63;;;10.79;100.00
60852;BME280;48553;50.766;2.900;2024-02-16T05:14:50;100163.88;;;10.79;100.00
60852;BME280;48553;50.766;2.900;2024-02-16T05:17:51;100167.41;;;10.80;100.00
60852;BME280;48553;50.766;2.900;2024-02-16T05:20:51;100176.84;;;10.82;100.00
60852;BME280;48553;50.766;2.900;2024-02-16T05:23:52;100176.06;;;10.82;100.00
60852;BME280;48553;50.766;2.900;2024-02-16T05:26:52;100182.69;;;10.81;100.00
60852;BME280;48553;50.766;2.900;2024-02-16T05:29:52;100172.16;;;10.83;100.00
60852;BME280;48553;50.766;2.900;2024-02-16T05:32:53;100180.75;;;10.81;100.00
60852;BME280;48553;50.766;2.900;2024-02-16T05:35:54;100178.00;;;10.81;100.00
60852;BME280;48553;50.766;2.900;2024-02-16T05:38:58;100191.00;;;10.84;100.00
60852;BME280;48553;50.766;2.900;2024-02-16T05:42:09;100186.69;;;10.83;100.00
60852;BME280;48553;50.766;2.900;2024-02-16T05:45:10;100190.22;;;10.84;100.00
60852;BME280;48553;50.766;2.900;2024-02-16T05:48:11;100190.66;;;10.86;100.00
60852;BME280;48553;50.766;2.900;2024-02-16T05:51:12;100198.88;;;10.86;100.00
60852;BME280;48553;50.766;2.900;2024-02-16T05:54:13;100198.09;;;10.85;100.00
60852;BME280;48553;50.766;2.900;2024-02-16T05:57:14;100198.44;;;10.84;100.00
60852;BME280;48553;50.766;2.900;2024-02-16T06:00:14;100197.28;;;10.85;100.00
60852;BME280;48553;50.766;2.900;2024-02-16T06:03:15;100206.66;;;10.84;100.00
60852;BME280;48553;50.766;2.900;2024-02-16T06:06:16;100214.91;;;10.84;100.00
60852;BME280;48553;50.766;2.900;2024-02-16T06:09:16;100209.84;;;10.86;100.00
60852;BME280;48553;50.766;2.900;2024-02-16T06:12:17;100205.97;;;10.87;100.00
60852;BME280;48553;50.766;2.900;2024-02-16T06:15:18;100213.38;;;10.86;100.00
60852;BME280;48553;50.766;2.900;2024-02-16T06:18:18;100222.31;;;10.83;100.00
60852;BME280;48553;50.766;2.900;2024-02-16T06:21:19;100236.03;;;10.83;100.00
60852;BME280;48553;50.766;2.900;2024-02-16T06:24:21;100222.31;;;10.83;100.00
60852;BME280;48553;50.766;2.900;2024-02-16T06:27:21;100233.28;;;10.83;100.00
60852;BME280;48553;50.766;2.900;2024-02-16T06:30:22;100234.06;;;10.84;100.00
60852;BME280;48553;50.766;2.900;2024-02-16T06:33:22;100241.16;;;10.85;100.00
60852;BME280;48553;50.766;2.900;2024-02-16T06:36:23;100244.72;;;10.85;100.00
60852;BME280;48553;50.766;2.900;2024-02-16T06:39:23;100248.56;;;10.84;100.00
60852;BME280;48553;50.766;2.900;2024-02-16T06:42:23;100252.94;;;10.85;100.00
60852;BME280;48553;50.766;2.900;2024-02-16T06:45:24;100257.59;;;10.85;100.00
60852;BME280;48553;50.766;2.900;2024-02-16T06:48:26;100278.72;;;10.84;100.00
60852;BME280;48553;50.766;2.900;2024-02-16T06:51:26;100282.25;;;10.85;100.00
60852;BME280;48553;50.766;2.900;2024-02-16T06:54:28;100272.91;;;10.86;100.00
60852;BME280;48553;50.766;2.900;2024-02-16T06:57:28;100283.88;;;10.86;100.00
60852;BME280;48553;50.766;2.900;2024-02-16T07:00:31;100290.16;;;10.86;100.00
60852;BME280;48553;50.766;2.900;2024-02-16T07:03:32;100305.44;;;10.87;100.00
60852;BME280;48553;50.766;2.900;2024-02-16T07:06:32;100304.31;;;10.89;100.00
60852;BME280;48553;50.766;2.900;2024-02-16T07:09:33;100307.84;;;10.89;100.00
60852;BME280;48553;50.766;2.900;2024-02-16T07:12:33;100325.91;;;10.90;100.00
60852;BME280;48553;50.766;2.900;2024-02-16T07:15:34;100336.88;;;10.90;100.00
60852;BME280;48553;50.766;2.900;2024-02-16T07:18:34;100334.13;;;10.90;100.00
60852;BME280;48553;50.766;2.900;2024-02-16T07:21:35;100343.94;;;10.91;100.00
60852;BME280;48553;50.766;2.900;2024-02-16T07:24:35;100347.00;;;10.90;100.00
60852;BME280;48553;50.766;2.900;2024-02-16T07:27:35;100346.22;;;10.89;100.00
60852;BME280;48553;50.766;2.900;2024-02-16T07:30:36;100363.47;;;10.90;100.00
60852;BME280;48553;50.766;2.900;2024-02-16T07:33:39;100365.41;;;10.89;100.00
60852;BME280;48553;50.766;2.900;2024-02-16T07:36:40;100383.09;;;10.92;100.00
60852;BME280;48553;50.766;2.900;2024-02-16T07:39:40;100370.56;;;10.91;100.00
60852;BME280;48553;50.766;2.900;2024-02-16T07:42:41;100377.16;;;10.90;100.00
60852;BME280;48553;50.766;2.900;2024-02-16T07:45:42;100383.09;;;10.92;100.00
60852;BME280;48553;50.766;2.900;2024-02-16T07:48:43;100394.88;;;10.92;100.00
60852;BME280;48553;50.766;2.900;2024-02-16T07:51:43;100394.06;;;10.92;100.00
60852;BME280;48553;50.766;2.900;2024-02-16T07:54:44;100397.97;;;10.91;100.00
60852;BME280;48553;50.766;2.900;2024-02-16T07:57:44;100400.81;;;10.94;100.00
60852;BME280;48553;50.766;2.900;2024-02-16T08:00:45;100401.63;;;10.95;100.00
60852;BME280;48553;50.766;2.900;2024-02-16T08:03:45;100405.16;;;10.95;100.00
60852;BME280;48553;50.766;2.900;2024-02-16T08:06:46;100409.84;;;10.95;100.00
60852;BME280;48553;50.766;2.900;2024-02-16T08:09:46;100413.38;;;10.95;100.00
60852;BME280;48553;50.766;2.900;2024-02-16T08:12:47;100424.00;;;10.97;100.00
60852;BME280;48553;50.766;2.900;2024-02-16T08:15:48;100427.88;;;10.96;100.00
60852;BME280;48553;50.766;2.900;2024-02-16T08:18:48;100430.63;;;10.96;100.00
60852;BME280;48553;50.766;2.900;2024-02-16T08:21:49;100432.59;;;10.95;100.00
60852;BME280;48553;50.766;2.900;2024-02-16T08:24:49;100446.75;;;10.97;100.00
60852;BME280;48553;50.766;2.900;2024-02-16T08:27:51;100449.13;;;10.99;100.00
60852;BME280;48553;50.766;2.900;2024-02-16T08:30:52;100461.72;;;11.00;100.00
60852;BME280;48553;50.766;2.900;2024-02-16T08:33:52;100465.94;;;10.97;100.00
60852;BME280;48553;50.766;2.900;2024-02-16T08:36:53;100455.75;;;10.98;100.00
60852;BME280;48553;50.766;2.900;2024-02-16T08:39:53;100462.03;;;10.98;100.00
60852;BME280;48553;50.766;2.900;2024-02-16T08:42:54;100473.47;;;11.00;100.00
60852;BME280;48553;50.766;2.900;2024-02-16T08:45:55;100478.16;;;11.00;100.00
60852;BME280;48553;50.766;2.900;2024-02-16T08:48:56;100478.94;;;11.00;100.00
60852;BME280;48553;50.766;2.900;2024-02-16T08:51:57;100480.91;;;11.00;100.00
60852;BME280;48553;50.766;2.900;2024-02-16T08:54:57;100494.28;;;11.01;100.00
60852;BME280;48553;50.766;2.900;2024-02-16T08:57:57;100503.63;;;11.00;100.00
60852;BME280;48553;50.766;2.900;2024-02-16T09:00:58;100514.94;;;10.99;100.00
60852;BME280;48553;50.766;2.900;2024-02-16T09:03:58;100513.47;;;11.01;100.00
60852;BME280;48553;50.766;2.900;2024-02-16T09:06:59;100521.25;;;10.99;100.00
60852;BME280;48553;50.766;2.900;2024-02-16T09:10:00;100522.03;;;11.00;100.00
60852;BME280;48553;50.766;2.900;2024-02-16T09:13:00;100539.28;;;11.00;100.00
60852;BME280;48553;50.766;2.900;2024-02-16T09:16:02;100542.34;;;10.99;100.00
60852;BME280;48553;50.766;2.900;2024-02-16T09:19:03;100540.78;;;10.98;100.00
60852;BME280;48553;50.766;2.900;2024-02-16T09:22:04;100549.78;;;10.98;100.00
60852;BME280;48553;50.766;2.900;2024-02-16T09:25:06;100556.53;;;11.01;100.00
60852;BME280;48553;50.766;2.900;2024-02-16T09:28:07;100562.84;;;11.01;100.00
60852;BME280;48553;50.766;2.900;2024-02-16T09:31:07;100569.91;;;11.02;100.00
60852;BME280;48553;50.766;2.900;2024-02-16T09:34:08;100570.69;;;11.03;100.00
60852;BME280;48553;50.766;2.900;2024-02-16T09:37:09;100580.09;;;11.02;100.00
60852;BME280;48553;50.766;2.900;2024-02-16T09:40:11;100588.63;;;11.00;100.00
60852;BME280;48553;50.766;2.900;2024-02-16T09:43:24;100607.50;;;11.02;100.00
60852;BME280;48553;50.766;2.900;2024-02-16T09:46:26;100598.91;;;11.03;100.00
60852;BME280;48553;50.766;2.900;2024-02-16T09:49:27;100617.31;;;11.03;100.00
60852;BME280;48553;50.766;2.900;2024-02-16T09:52:27;100634.94;;;11.02;100.00
60852;BME280;48553;50.766;2.900;2024-02-16T09:55:32;100640.41;;;11.02;100.00
60852;BME280;48553;50.766;2.900;2024-02-16T09:58:33;100642.78;;;11.03;100.00
60852;BME280;48553;50.766;2.900;2024-02-16T10:01:34;100649.75;;;11.01;100.00
60852;BME280;48553;50.766;2.900;2024-02-16T10:04:35;100659.59;;;11.02;100.00
60852;BME280;48553;50.766;2.900;2024-02-16T10:07:35;100657.34;;;11.04;100.00
60852;BME280;48553;50.766;2.900;2024-02-16T10:10:36;100666.03;;;11.06;100.00
60852;BME280;48553;50.766;2.900;2024-02-16T10:13:37;100678.13;;;11.05;100.00
60852;BME280;48553;50.766;2.900;2024-02-16T10:16:38;100688.28;;;11.04;100.00
60852;BME280;48553;50.766;2.900;2024-02-16T10:19:38;100692.28;;;11.07;100.00
60852;BME280;48553;50.766;2.900;2024-02-16T10:22:39;100691.50;;;11.06;100.00
60852;BME280;48553;50.766;2.900;2024-02-16T10:25:40;100700.06;;;11.05;100.00
60852;BME280;48553;50.766;2.900;2024-02-16T10:28:41;100704.06;;;11.07;100.00
60852;BME280;48553;50.766;2.900;2024-02-16T10:31:43;100702.00;;;11.04;100.00
60852;BME280;48553;50.766;2.900;2024-02-16T10:34:45;100711.34;;;11.03;100.00
60852;BME280;48553;50.766;2.900;2024-02-16T10:37:47;100711.81;;;11.05;100.00
60852;BME280;48553;50.766;2.900;2024-02-16T10:40:48;100726.00;;;11.07;100.00
60852;BME280;48553;50.766;2.900;2024-02-16T10:43:51;100730.81;;;11.11;100.00
60852;BME280;48553;50.766;2.900;2024-02-16T10:46:55;100735.94;;;11.12;100.00
60852;BME280;48553;50.766;2.900;2024-02-16T10:49:58;100740.31;;;11.13;100.00
60852;BME280;48553;50.766;2.900;2024-02-16T10:53:04;100755.63;;;11.14;100.00
60852;BME280;48553;50.766;2.900;2024-02-16T10:56:06;100758.03;;;11.16;100.00
60852;BME280;48553;50.766;2.900;2024-02-16T10:59:09;100773.78;;;11.19;100.00
60852;BME280;48553;50.766;2.900;2024-02-16T11:02:10;100762.97;;;11.22;100.00
60852;BME280;48553;50.766;2.900;2024-02-16T11:05:10;100780.53;;;11.21;100.00
60852;BME280;48553;50.766;2.900;2024-02-16T11:08:13;100783.75;;;11.23;100.00
60852;BME280;48553;50.766;2.900;2024-02-16T11:11:22;100788.91;;;11.25;100.00
60852;BME280;48553;50.766;2.900;2024-02-16T11:14:23;100789.38;;;11.27;100.00
60852;BME280;48553;50.766;2.900;2024-02-16T11:17:24;100801.59;;;11.29;100.00
60852;BME280;48553;50.766;2.900;2024-02-16T11:20:25;100798.31;;;11.36;100.00
60852;BME280;48553;50.766;2.900;2024-02-16T11:23:29;100809.53;;;11.43;100.00
60852;BME280;48553;50.766;2.900;2024-02-16T11:26:30;100803.72;;;11.57;100.00
60852;BME280;48553;50.766;2.900;2024-02-16T11:29:32;100815.63;;;11.61;100.00
60852;BME280;48553;50.766;2.900;2024-02-16T11:32:33;100824.88;;;11.69;100.00
60852;BME280;48553;50.766;2.900;2024-02-16T11:35:34;100818.50;;;11.77;100.00
60852;BME280;48553;50.766;2.900;2024-02-16T11:38:35;100835.53;;;11.83;100.00
60852;BME280;48553;50.766;2.900;2024-02-16T11:41:35;100838.75;;;11.85;100.00
60852;BME280;48553;50.766;2.900;2024-02-16T11:44:37;100837.09;;;11.93;100.00
60852;BME280;48553;50.766;2.900;2024-02-16T11:47:40;100839.59;;;12.10;100.00
60852;BME280;48553;50.766;2.900;2024-02-16T11:50:40;100835.34;;;12.25;100.00
60852;BME280;48553;50.766;2.900;2024-02-16T11:53:41;100848.06;;;12.29;100.00
60852;BME280;48553;50.766;2.900;2024-02-16T11:56:48;100846.22;;;12.33;100.00
60852;BME280;48553;50.766;2.900;2024-02-16T11:59:51;100849.78;;;12.34;100.00
60852;BME280;48553;50.766;2.900;2024-02-16T12:02:59;100850.31;;;12.40;100.00
60852;BME280;48553;50.766;2.900;2024-02-16T12:06:00;100863.72;;;12.41;100.00
60852;BME280;48553;50.766;2.900;2024-02-16T12:09:03;100863.72;;;12.41;100.00
60852;BME280;48553;50.766;2.900;2024-02-16T12:12:04;100859.59;;;12.47;100.00
60852;BME280;48553;50.766;2.900;2024-02-16T12:15:06;100863.59;;;12.50;100.00
60852;BME280;48553;50.766;2.900;2024-02-16T12:18:07;100876.56;;;12.49;100.00
60852;BME280;48553;50.766;2.900;2024-02-16T12:21:08;100878.84;;;12.47;100.00
60852;BME280;48553;50.766;2.900;2024-02-16T12:24:11;100876.66;;;12.53;100.00
60852;BME280;48553;50.766;2.900;2024-02-16T12:27:12;100888.47;;;12.53;100.00
60852;BME280;48553;50.766;2.900;2024-02-16T12:30:13;100878.72;;;12.56;100.00
60852;BME280;48553;50.766;2.900;2024-02-16T12:33:14;100887.31;;;12.54;100.00
60852;BME280;48553;50.766;2.900;2024-02-16T12:36:14;100886.97;;;12.56;100.00
60852;BME280;48553;50.766;2.900;2024-02-16T12:39:15;100892.09;;;12.58;100.00
60852;BME280;48553;50.766;2.900;2024-02-16T12:42:16;100897.59;;;12.58;100.00
60852;BME280;48553;50.766;2.900;2024-02-16T12:45:16;100909.44;;;12.58;100.00
60852;BME280;48553;50.766;2.900;2024-02-16T12:48:17;100899.91;;;12.56;100.00
60852;BME280;48553;50.766;2.900;2024-02-16T12:51:18;100901.53;;;12.57;100.00
60852;BME280;48553;50.766;2.900;2024-02-16T12:54:19;100898.78;;;12.57;100.00
60852;BME280;48553;50.766;2.900;2024-02-16T12:57:19;100909.44;;;12.58;100.00
60852;BME280;48553;50.766;2.900;2024-02-16T13:00:20;100910.31;;;12.62;100.00
60852;BME280;48553;50.766;2.900;2024-02-16T13:03:20;100923.03;;;12.67;100.00
60852;BME280;48553;50.766;2.900;2024-02-16T13:06:20;100917.31;;;12.72;100.00
60852;BME280;48553;50.766;2.900;2024-02-16T13:09:21;100927.84;;;12.70;100.00
60852;BME280;48553;50.766;2.900;2024-02-16T13:12:21;100927.41;;;12.68;100.00
60852;BME280;48553;50.766;2.900;2024-02-16T13:15:24;100924.97;;;12.66;100.00
60852;BME280;48553;50.766;2.900;2024-02-16T13:18:24;100931.97;;;12.64;100.00
60852;BME280;48553;50.766;2.900;2024-02-16T13:21:25;100931.19;;;12.63;100.00
60852;BME280;48553;50.766;2.900;2024-02-16T13:24:25;100933.94;;;12.63;100.00
60852;BME280;48553;50.766;2.900;2024-02-16T13:27:26;100941.72;;;12.61;100.00
60852;BME280;48553;50.766;2.900;2024-02-16T13:30:26;100940.47;;;12.59;100.00
60852;BME280;48553;50.766;2.900;2024-02-16T13:33:30;100941.25;;;12.59;100.00
60852;BME280;48553;50.766;2.900;2024-02-16T13:36:30;100954.22;;;12.59;100.00
60852;BME280;48553;50.766;2.900;2024-02-16T13:39:31;100942.97;;;12.64;100.00
60852;BME280;48553;50.766;2.900;2024-02-16T13:42:31;100955.44;;;12.73;100.00
60852;BME280;48553;50.766;2.900;2024-02-16T13:45:48;100943.16;;;12.95;100.00
60852;BME280;48553;50.766;2.900;2024-02-16T13:48:49;100956.28;;;13.27;100.00
60852;BME280;48553;50.766;2.900;2024-02-16T13:51:50;100951.78;;;13.47;100.00
60852;BME280;48553;50.766;2.900;2024-02-16T13:54:50;100963.50;;;13.60;100.00
60852;BME280;48553;50.766;2.900;2024-02-16T13:57:51;100957.34;;;13.78;100.00
60852;BME280;48553;50.766;2.900;2024-02-16T14:00:52;100965.53;;;13.91;100.00
60852;BME280;48553;50.766;2.900;2024-02-16T14:03:54;100964.22;;;14.00;100.00
60852;BME280;48553;50.766;2.900;2024-02-16T14:06:55;100967.72;;;14.13;100.00
60852;BME280;48553;50.766;2.900;2024-02-16T14:09:55;100971.09;;;14.23;100.00
60852;BME280;48553;50.766;2.900;2024-02-16T14:12:56;100967.88;;;14.20;100.00
60852;BME280;48553;50.766;2.900;2024-02-16T14:15:56;100975.09;;;14.09;100.00
60852;BME280;48553;50.766;2.900;2024-02-16T14:18:56;100987.31;;;13.96;100.00
60852;BME280;48553;50.766;2.900;2024-02-16T14:21:57;100986.50;;;13.79;100.00
60852;BME280;48553;50.766;2.900;2024-02-16T14:24:57;100989.75;;;13.69;100.00
60852;BME280;48553;50.766;2.900;2024-02-16T14:27:58;100994.38;;;13.65;100.00
60852;BME280;48553;50.766;2.900;2024-02-16T14:30:58;100992.09;;;13.55;100.00
60852;BME280;48553;50.766;2.900;2024-02-16T14:33:59;101006.47;;;13.48;100.00
60852;BME280;48553;50.766;2.900;2024-02-16T14:37:00;101001.09;;;13.40;100.00
60852;BME280;48553;50.766;2.900;2024-02-16T14:40:01;101006.50;;;13.36;100.00
60852;BME280;48553;50.766;2.900;2024-02-16T14:43:02;101014.97;;;13.43;100.00
60852;BME280;48553;50.766;2.900;2024-02-16T14:46:03;101007.25;;;13.49;100.00
60852;BME280;48553;50.766;2.900;2024-02-16T14:49:06;101015.84;;;13.60;100.00
60852;BME280;48553;50.766;2.900;2024-02-16T14:52:08;101024.91;;;13.60;100.00
60852;BME280;48553;50.766;2.900;2024-02-16T14:55:10;101031.22;;;13.61;100.00
60852;BME280;48553;50.766;2.900;2024-02-16T14:58:10;101042.69;;;13.63;100.00
60852;BME280;48553;50.766;2.900;2024-02-16T15:01:11;101048.22;;;13.63;100.00
60852;BME280;48553;50.766;2.900;2024-02-16T15:04:12;101042.34;;;13.64;100.00
60852;BME280;48553;50.766;2.900;2024-02-16T15:07:12;101050.97;;;13.63;100.00
60852;BME280;48553;50.766;2.900;2024-02-16T15:10:13;101058.53;;;13.66;100.00
60852;BME280;48553;50.766;2.900;2024-02-16T15:13:13;101068.38;;;13.67;100.00
60852;BME280;48553;50.766;2.900;2024-02-16T15:16:14;101078.13;;;13.64;100.00
60852;BME280;48553;50.766;2.900;2024-02-16T15:19:14;101082.84;;;13.64;100.00
60852;BME280;48553;50.766;2.900;2024-02-16T15:22:14;101080.34;;;13.58;100.00
60852;BME280;48553;50.766;2.900;2024-02-16T15:25:15;101088.72;;;13.50;100.00
60852;BME280;48553;50.766;2.900;2024-02-16T15:28:15;101094.03;;;13.43;100.00
60852;BME280;48553;50.766;2.900;2024-02-16T15:31:16;101105.63;;;13.36;100.00
60852;BME280;48553;50.766;2.900;2024-02-16T15:34:16;101120.06;;;13.33;100.00